.
WxDataArchive / Data Records for 2006-09-30
2006-09-29 September 2006 2006-10-01

Data Records for Saturday, 30 September 2006

Time	Temp	Chill	HIndex	Humid	Dewpt	 Wind 	HiWind	WindDir	Rain 	Barom 
-----	----	-----	------	-----	-----	------	------	-------	-----	----- 
00:00	51.1	51.1	51.1	80	45.1	1	2	248	0.00	29.863 
00:05	50.8	50.8	50.8	82	45.5	0	2	248	0.01	29.863 
00:10	50.7	50.7	50.7	83	45.7	0	1	248	0.00	29.863 
00:15	50.4	50.4	50.4	84	45.7	0	1	248	0.00	29.859 
00:20	50.2	50.2	50.2	85	45.9	0	1	248	0.00	29.859 
00:25	50.1	50.1	50.1	86	46.1	0	0	---	0.00	29.859 
00:30	50.1	50.1	50.1	87	46.4	0	1	248	0.00	29.857 
00:35	49.9	49.9	49.9	87	46.2	0	0	---	0.00	29.857 
00:40	49.9	49.9	49.9	87	46.2	0	0	---	0.00	29.857 
00:45	49.8	49.8	49.8	87	46.1	0	1	248	0.01	29.848 
00:50	49.8	49.8	49.8	88	46.4	0	1	248	0.00	29.848 
00:55	49.8	49.8	49.8	88	46.4	0	1	248	0.00	29.848 
01:00	49.6	49.6	49.6	88	46.2	0	0	---	0.00	29.847 
01:05	49.6	49.6	49.6	88	46.2	0	1	248	0.00	29.847 
01:10	49.6	49.6	49.6	89	46.5	0	1	248	0.01	29.847 
01:15	49.6	49.6	49.6	89	46.5	0	2	248	0.00	29.842 
01:20	49.5	49.5	49.5	89	46.4	0	2	248	0.00	29.842 
01:25	49.5	49.5	49.5	90	46.7	0	1	248	0.01	29.842 
01:30	49.5	49.5	49.5	90	46.7	0	2	248	0.00	29.834 
01:35	49.5	49.5	49.5	90	46.7	0	1	90	0.00	29.834 
01:40	49.5	49.5	49.5	91	47.0	0	1	90	0.01	29.834 
01:45	49.4	49.4	49.4	91	46.9	0	2	90	0.00	29.828 
01:50	49.4	49.4	49.4	92	47.2	1	2	90	0.00	29.828 
01:55	49.2	49.2	49.2	92	47.0	1	2	90	0.00	29.828 
02:00	49.2	49.2	49.2	92	47.0	0	2	90	0.00	29.818 
02:05	49.1	49.1	49.1	92	46.9	0	1	90	0.00	29.818 
02:10	49.1	49.1	49.1	92	46.9	0	2	90	0.00	29.818 
02:15	49.1	49.1	49.1	92	46.9	1	2	90	0.00	29.816 
02:20	49.1	49.1	49.1	92	46.9	1	3	112	0.01	29.816 
02:25	49.1	49.1	49.1	92	46.9	1	3	112	0.00	29.816 
02:30	49.1	49.1	49.1	92	46.9	1	3	112	0.00	29.815 
02:35	49.1	49.1	49.1	92	46.9	0	1	112	0.01	29.815 
02:40	49.1	49.1	49.1	92	46.9	1	3	90	0.00	29.815 
02:45	49.1	49.1	49.1	92	46.9	0	1	90	0.00	29.816 
02:50	49.1	49.1	49.1	93	47.2	0	2	90	0.01	29.816 
02:55	49.2	49.2	49.2	93	47.3	1	3	90	0.00	29.816 
03:00	49.1	49.1	49.1	93	47.2	1	3	112	0.02	29.812 
03:05	49.1	49.1	49.1	93	47.2	1	3	90	0.01	29.812 
03:10	48.9	48.9	48.9	93	47.0	1	3	112	0.01	29.812 
03:15	48.9	48.9	48.9	93	47.0	1	4	112	0.00	29.803 
03:20	48.9	48.9	48.9	93	47.0	1	4	90	0.01	29.803 
03:25	48.9	48.9	48.9	93	47.0	1	4	90	0.01	29.803 
03:30	48.9	48.9	48.9	93	47.0	2	5	90	0.01	29.800 
03:35	48.9	48.9	48.9	93	47.0	1	3	112	0.01	29.800 
03:40	48.9	48.9	48.9	93	47.0	1	4	112	0.01	29.800 
03:45	48.9	48.9	48.9	93	47.0	1	3	90	0.00	29.789 
03:50	48.9	48.9	48.9	93	47.0	1	3	90	0.01	29.789 
03:55	48.9	48.9	48.9	93	47.0	1	4	112	0.00	29.789 
04:00	48.9	48.9	48.9	93	47.0	1	3	112	0.01	29.783 
04:05	48.9	48.9	48.9	94	47.2	1	3	112	0.00	29.783 
04:10	48.8	48.8	48.8	94	47.1	1	3	112	0.01	29.783 
04:15	48.8	48.8	48.8	94	47.1	1	3	135	0.01	29.778 
04:20	48.8	48.8	48.8	94	47.1	1	2	90	0.00	29.778 
04:25	48.8	48.8	48.8	94	47.1	1	3	68	0.00	29.778 
04:30	48.8	48.8	48.8	94	47.1	1	4	90	0.01	29.769 
04:35	48.8	48.8	48.8	94	47.1	1	3	90	0.00	29.769 
04:40	48.8	48.8	48.8	94	47.1	1	2	90	0.00	29.769 
04:45	48.8	48.8	48.8	94	47.1	1	4	90	0.01	29.765 
04:50	48.8	48.8	48.8	93	46.9	1	5	135	0.01	29.765 
04:55	48.9	48.9	48.9	93	47.0	1	4	90	0.01	29.765 
05:00	48.8	48.8	48.8	93	46.9	2	6	90	0.00	29.757 
05:05	48.9	48.9	48.9	93	47.0	1	3	90	0.00	29.757 
05:10	48.9	48.9	48.9	93	47.0	1	7	112	0.00	29.757 
05:15	48.9	48.9	48.9	93	47.0	1	4	112	0.00	29.754 
05:20	48.9	48.9	48.9	93	47.0	2	5	90	0.00	29.754 
05:25	48.9	48.9	48.9	93	47.0	1	4	112	0.00	29.754 
05:30	49.1	49.1	49.1	93	47.2	0	2	112	0.00	29.756 
05:35	49.1	49.1	49.1	93	47.2	1	5	248	0.00	29.756 
05:40	49.1	49.1	49.1	93	47.2	1	4	112	0.00	29.756 
05:45	49.1	49.1	49.1	93	47.2	2	4	112	0.00	29.751 
05:50	49.1	49.1	49.1	92	46.9	2	4	112	0.00	29.751 
05:55	49.1	49.1	49.1	92	46.9	1	4	112	0.00	29.751 
06:00	49.1	49.1	49.1	93	47.2	2	5	90	0.00	29.746 
06:05	49.1	49.1	49.1	92	46.9	2	3	90	0.00	29.746 
06:10	49.2	49.2	49.2	92	47.0	2	4	112	0.00	29.746 
06:15	49.2	49.2	49.2	93	47.3	1	4	112	0.00	29.744 
06:20	49.2	49.2	49.2	92	47.0	2	5	112	0.00	29.744 
06:25	49.2	49.2	49.2	93	47.3	1	3	112	0.00	29.744 
06:30	49.2	49.2	49.2	93	47.3	1	5	90	0.00	29.741 
06:35	49.2	49.2	49.2	93	47.3	0	2	90	0.00	29.741 
06:40	49.2	49.2	49.2	93	47.3	1	3	90	0.00	29.741 
06:45	49.2	49.2	49.2	93	47.3	1	2	90	0.00	29.740 
06:50	49.2	49.2	49.2	93	47.3	1	2	112	0.00	29.740 
06:55	49.2	49.2	49.2	93	47.3	1	3	112	0.00	29.740 
07:00	49.2	49.2	49.2	93	47.3	1	2	135	0.00	29.738 
07:05	49.2	49.2	49.2	93	47.3	1	3	112	0.00	29.738 
07:10	49.2	49.2	49.2	93	47.3	1	3	90	0.00	29.738 
07:15	49.2	49.2	49.2	93	47.3	1	3	90	0.00	29.740 
07:20	49.2	49.2	49.2	93	47.3	1	3	90	0.00	29.740 
07:25	49.2	49.2	49.2	92	47.0	0	2	90	0.00	29.740 
07:30	49.1	49.1	49.1	92	46.9	1	3	112	0.00	29.735 
07:35	48.9	48.9	48.9	92	46.7	1	2	112	0.00	29.735 
07:40	48.9	48.9	48.9	92	46.7	1	3	90	0.00	29.735 
07:45	48.8	48.8	48.8	92	46.6	1	2	112	0.00	29.737 
07:50	48.8	48.8	48.8	92	46.6	1	3	112	0.00	29.737 
07:55	48.8	48.8	48.8	93	46.9	1	2	112	0.00	29.737 
08:00	48.8	48.8	48.8	93	46.9	0	2	135	0.00	29.737 
08:05	48.8	48.8	48.8	93	46.9	1	5	135	0.00	29.737 
08:10	48.9	48.9	48.9	93	47.0	1	3	112	0.00	29.737 
08:15	49.1	49.1	49.1	92	46.9	0	2	90	0.00	29.740 
08:20	49.1	49.1	49.1	92	46.9	1	2	90	0.00	29.740 
08:25	49.2	49.2	49.2	92	47.0	1	3	90	0.00	29.740 
08:30	49.2	49.2	49.2	92	47.0	1	2	112	0.00	29.741 
08:35	49.4	49.4	49.4	92	47.2	1	2	112	0.00	29.741 
08:40	49.5	49.5	49.5	92	47.3	1	3	45	0.00	29.741 
08:45	49.6	49.6	49.6	92	47.4	0	2	68	0.00	29.741 
08:50	49.6	49.6	49.6	92	47.4	1	3	68	0.00	29.741 
08:55	49.8	49.8	49.8	92	47.6	0	2	68	0.00	29.741 
09:00	49.9	49.9	49.9	91	47.4	1	3	90	0.00	29.739 
09:05	50.1	50.1	50.1	90	47.3	2	4	90	0.00	29.739 
09:10	50.2	50.2	50.2	90	47.4	1	6	90	0.00	29.739 
09:15	50.5	50.5	50.5	89	47.4	1	5	90	0.00	29.733 
09:20	50.8	50.8	50.8	89	47.7	1	4	45	0.00	29.733 
09:25	51.0	51.0	51.0	89	47.9	1	4	135	0.00	29.733 
09:30	51.3	51.3	51.3	88	47.9	2	6	112	0.00	29.728 
09:35	51.6	51.6	51.6	87	47.9	1	5	112	0.00	29.728 
09:40	51.9	51.9	51.9	87	48.2	2	5	90	0.00	29.728 
09:45	52.2	52.2	52.2	87	48.4	1	4	112	0.00	29.730 
09:50	52.6	52.6	52.6	86	48.5	1	3	112	0.00	29.730 
09:55	52.9	52.9	52.9	85	48.5	1	9	90	0.00	29.730 
10:00	53.3	53.3	53.3	85	48.9	1	4	22	0.00	29.727 
10:05	53.6	53.6	53.6	84	48.9	1	3	45	0.00	29.727 
10:10	53.9	53.9	53.9	83	48.9	1	5	248	0.00	29.727 
10:15	54.1	54.1	54.1	84	49.4	1	3	248	0.00	29.735 
10:20	54.2	54.2	54.2	82	48.8	2	6	270	0.00	29.735 
10:25	54.5	54.5	54.5	83	49.4	2	6	248	0.00	29.735 
10:30	54.7	54.7	54.7	83	49.6	1	4	248	0.00	29.736 
10:35	54.8	54.8	54.8	81	49.1	1	4	248	0.00	29.736 
10:40	54.8	54.8	54.8	80	48.7	3	9	270	0.00	29.736 
10:45	54.8	54.8	54.8	81	49.1	1	4	248	0.00	29.736 
10:50	55.0	55.0	55.0	80	48.9	2	6	248	0.00	29.736 
10:55	55.1	55.1	55.1	79	48.7	3	6	248	0.00	29.736 
11:00	55.6	55.6	55.6	80	49.5	1	4	248	0.00	29.733 
11:05	56.2	56.2	56.2	79	49.8	2	6	248	0.00	29.733 
11:10	57.0	57.0	57.0	78	50.2	2	9	248	0.00	29.733 
11:15	58.0	58.0	58.0	76	50.5	2	4	248	0.00	29.732 
11:20	58.3	58.3	58.3	73	49.7	2	5	270	0.00	29.732 
11:25	58.4	58.4	58.4	75	50.5	2	9	248	0.00	29.732 
11:30	58.4	58.4	58.4	74	50.1	2	4	248	0.00	29.733 
11:35	58.7	58.7	58.7	75	50.8	1	4	248	0.00	29.733 
11:40	59.3	59.3	59.3	74	51.0	1	4	248	0.00	29.733 
11:45	59.6	59.6	59.6	71	50.2	2	5	270	0.00	29.726 
11:50	59.2	59.2	59.2	71	49.8	3	6	270	0.00	29.726 
11:55	59.2	59.2	59.2	72	50.2	2	6	270	0.00	29.726 
12:00	58.9	58.9	58.9	72	49.9	2	5	248	0.00	29.725 
12:05	58.4	58.4	58.4	73	49.8	2	5	270	0.00	29.725 
12:10	58.0	58.0	58.0	74	49.8	1	4	270	0.00	29.725 
12:15	57.8	57.8	57.8	75	49.9	1	3	270	0.00	29.733 
12:20	57.6	57.6	57.6	75	49.7	2	4	248	0.00	29.733 
12:25	57.5	57.5	57.5	75	49.6	2	6	270	0.00	29.733 
12:30	57.5	57.5	57.5	76	50.0	1	3	248	0.00	29.727 
12:35	57.6	57.6	57.6	76	50.1	1	3	248	0.00	29.727 
12:40	57.8	57.8	57.8	75	49.9	1	3	248	0.00	29.727 
12:45	58.0	58.0	58.0	76	50.5	1	4	248	0.00	29.733 
12:50	58.1	58.1	58.1	75	50.2	1	3	292	0.00	29.733 
12:55	58.1	58.1	58.1	76	50.6	1	3	270	0.00	29.733 
13:00	58.0	58.0	58.0	76	50.5	1	3	248	0.00	29.731 
13:05	58.0	58.0	58.0	76	50.5	1	3	248	0.00	29.731 
13:10	58.1	58.1	58.1	76	50.6	1	4	248	0.01	29.731 
13:15	59.2	59.2	59.2	76	51.6	1	3	248	0.00	29.724 
13:20	60.4	60.4	60.4	73	51.7	1	3	248	0.00	29.724 
13:25	60.1	60.1	60.1	72	51.0	2	5	248	0.00	29.724 
13:30	60.1	60.1	60.1	73	51.4	2	5	248	0.00	29.723 
13:35	59.9	59.9	59.9	73	51.2	1	3	248	0.00	29.723 
13:40	60.5	60.5	60.5	72	51.4	1	3	248	0.00	29.723 
13:45	60.9	60.9	60.9	72	51.8	1	3	270	0.00	29.724 
13:50	60.7	60.7	60.7	72	51.6	1	4	248	0.00	29.724 
13:55	60.5	60.5	60.5	71	51.0	2	5	248	0.00	29.724 
14:00	61.2	61.2	61.2	72	52.1	1	4	248	0.00	29.722 
14:05	61.5	61.5	61.5	68	50.8	2	6	248	0.00	29.722 
14:10	61.5	61.5	61.5	69	51.2	2	6	270	0.00	29.722 
14:15	61.5	61.5	61.5	69	51.2	2	5	270	0.00	29.721 
14:20	61.8	61.8	61.8	69	51.5	1	5	270	0.00	29.721 
14:25	62.1	62.1	62.1	68	51.4	1	5	248	0.00	29.721 
14:30	61.8	61.8	61.8	67	50.7	2	3	248	0.00	29.720 
14:35	61.6	61.6	61.6	69	51.3	1	3	248	0.00	29.720 
14:40	61.6	61.6	61.6	67	50.5	2	4	270	0.00	29.720 
14:45	62.0	62.0	62.0	67	50.9	2	4	248	0.00	29.721 
14:50	62.3	62.3	62.3	68	51.6	2	5	248	0.00	29.721 
14:55	63.1	63.1	63.1	66	51.6	2	5	270	0.00	29.721 
15:00	63.4	63.4	63.4	65	51.4	3	6	248	0.00	29.718 
15:05	63.1	63.1	63.1	65	51.1	1	3	248	0.00	29.718 
15:10	62.9	62.9	62.9	65	50.9	1	4	270	0.00	29.718 
15:15	62.4	62.4	62.4	65	50.5	2	4	292	0.00	29.717 
15:20	62.3	62.3	62.3	65	50.4	2	5	270	0.00	29.717 
15:25	62.4	62.4	62.4	66	50.9	2	4	270	0.00	29.717 
15:30	62.9	62.9	62.9	65	50.9	2	5	270	0.00	29.715 
15:35	63.2	63.2	63.2	65	51.2	1	5	270	0.00	29.715 
15:40	63.7	63.7	63.7	65	51.7	2	4	248	0.00	29.715 
15:45	63.9	63.9	63.9	65	51.9	1	4	270	0.00	29.709 
15:50	64.0	64.0	64.0	66	52.4	1	3	248	0.00	29.709 
15:55	64.2	64.2	64.2	64	51.8	2	5	270	0.00	29.709 
16:00	64.7	64.7	64.7	64	52.2	1	3	248	0.00	29.702 
16:05	65.0	65.0	65.0	61	51.2	2	5	248	0.00	29.702 
16:10	64.8	64.8	64.8	58	49.7	2	5	248	0.00	29.702 
16:15	64.5	64.5	64.5	59	49.8	2	5	248	0.00	29.700 
16:20	64.0	64.0	64.0	60	49.8	2	5	248	0.00	29.700 
16:25	63.7	63.7	63.7	62	50.4	1	3	248	0.00	29.700 
16:30	63.4	63.4	63.4	62	50.1	1	3	248	0.00	29.711 
16:35	63.4	63.4	63.4	62	50.1	1	3	248	0.00	29.711 
16:40	63.2	63.2	63.2	63	50.4	1	4	270	0.00	29.711 
16:45	63.4	63.4	63.4	62	50.1	2	4	248	0.00	29.710 
16:50	63.5	63.5	63.5	62	50.2	1	3	248	0.00	29.710 
16:55	63.5	63.5	63.5	62	50.2	1	3	248	0.00	29.710 
17:00	63.5	63.5	63.5	63	50.7	1	3	248	0.00	29.709 
17:05	64.0	64.0	64.0	62	50.7	1	4	248	0.00	29.709 
17:10	64.3	64.3	64.3	62	51.0	2	4	292	0.00	29.709 
17:15	64.0	64.0	64.0	63	51.1	1	3	248	0.00	29.704 
17:20	63.5	63.5	63.5	62	50.2	1	2	248	0.00	29.704 
17:25	63.1	63.1	63.1	64	50.7	1	3	270	0.00	29.704 
17:30	62.4	62.4	62.4	62	49.2	2	5	315	0.00	29.739 
17:35	59.8	59.8	59.8	69	49.6	2	7	315	0.00	29.739 
17:40	57.3	57.3	57.3	78	50.5	1	3	315	0.04	29.739 
17:45	55.9	55.9	55.9	81	50.2	0	2	0	0.00	29.741 
17:50	55.0	55.0	55.0	84	50.3	0	2	22	0.00	29.741 
17:55	54.4	54.4	54.4	85	50.0	0	1	22	0.00	29.741 
18:00	54.1	54.1	54.1	86	50.0	0	2	315	0.01	29.749 
18:05	53.9	53.9	53.9	87	50.1	0	1	315	0.00	29.749 
18:10	53.9	53.9	53.9	87	50.1	0	0	---	0.00	29.749 
18:15	53.8	53.8	53.8	88	50.3	0	0	---	0.00	29.746 
18:20	53.8	53.8	53.8	89	50.6	0	0	---	0.00	29.746 
18:25	53.6	53.6	53.6	89	50.4	0	0	---	0.00	29.746 
18:30	53.5	53.5	53.5	89	50.3	0	0	---	0.00	29.760 
18:35	53.5	53.5	53.5	89	50.3	0	1	315	0.01	29.760 
18:40	53.5	53.5	53.5	90	50.6	1	2	315	0.00	29.760 
18:45	53.6	53.6	53.6	90	50.7	1	3	270	0.01	29.785 
18:50	53.6	53.6	53.6	90	50.7	1	3	248	0.00	29.785 
18:55	53.5	53.5	53.5	90	50.6	0	1	248	0.00	29.785 
19:00	53.5	53.5	53.5	90	50.6	0	0	---	0.00	29.768 
19:05	53.3	53.3	53.3	90	50.4	0	1	248	0.00	29.768 
19:10	53.3	53.3	53.3	91	50.7	0	1	248	0.00	29.768 
19:15	53.3	53.3	53.3	91	50.7	0	1	248	0.00	29.772 
19:20	53.2	53.2	53.2	91	50.6	0	1	248	0.00	29.772 
19:25	53.2	53.2	53.2	91	50.6	0	1	248	0.00	29.772 
19:30	53.2	53.2	53.2	92	50.9	0	1	248	0.00	29.776 
19:35	53.1	53.1	53.1	92	50.8	0	1	248	0.00	29.776 
19:40	53.1	53.1	53.1	92	50.8	0	0	---	0.00	29.776 
19:45	52.9	52.9	52.9	92	50.6	0	1	248	0.00	29.786 
19:50	52.8	52.8	52.8	91	50.2	0	1	248	0.00	29.786 
19:55	52.8	52.8	52.8	91	50.2	0	1	248	0.00	29.786 
20:00	52.6	52.6	52.6	91	50.0	0	1	248	0.00	29.789 
20:05	52.5	52.5	52.5	91	49.9	0	1	248	0.00	29.789 
20:10	52.3	52.3	52.3	91	49.8	0	1	248	0.00	29.789 
20:15	52.2	52.2	52.2	91	49.7	0	1	248	0.00	29.795 
20:20	52.0	52.0	52.0	91	49.5	0	1	248	0.00	29.795 
20:25	51.9	51.9	51.9	91	49.4	0	1	248	0.00	29.795 
20:30	51.7	51.7	51.7	91	49.2	0	2	248	0.00	29.802 
20:35	51.6	51.6	51.6	91	49.1	0	0	---	0.00	29.802 
20:40	51.4	51.4	51.4	91	48.9	0	1	248	0.00	29.802 
20:45	51.3	51.3	51.3	92	49.1	0	1	248	0.00	29.807 
20:50	51.1	51.1	51.1	92	48.9	0	1	248	0.00	29.807 
20:55	51.1	51.1	51.1	92	48.9	0	0	---	0.00	29.807 
21:00	51.0	51.0	51.0	92	48.8	0	0	---	0.00	29.810 
21:05	50.8	50.8	50.8	92	48.6	0	0	---	0.00	29.810 
21:10	50.8	50.8	50.8	92	48.6	0	0	---	0.00	29.810 
21:15	50.7	50.7	50.7	92	48.5	0	0	---	0.00	29.812 
21:20	50.5	50.5	50.5	92	48.3	0	0	---	0.00	29.812 
21:25	50.2	50.2	50.2	92	48.0	0	0	---	0.00	29.812 
21:30	50.1	50.1	50.1	93	48.2	0	0	---	0.00	29.819 
21:35	49.9	49.9	49.9	93	48.0	0	0	---	0.00	29.819 
21:40	49.8	49.8	49.8	93	47.9	0	0	---	0.00	29.819 
21:45	49.6	49.6	49.6	93	47.7	0	0	---	0.00	29.820 
21:50	49.5	49.5	49.5	93	47.6	0	0	---	0.00	29.820 
21:55	49.4	49.4	49.4	93	47.5	0	0	---	0.00	29.820 
22:00	49.2	49.2	49.2	93	47.3	0	0	---	0.00	29.823 
22:05	49.1	49.1	49.1	94	47.4	0	0	---	0.00	29.823 
22:10	48.9	48.9	48.9	94	47.2	0	0	---	0.00	29.823 
22:15	48.8	48.8	48.8	93	46.9	0	0	---	0.00	29.822 
22:20	48.5	48.5	48.5	94	46.9	0	0	---	0.00	29.822 
22:25	48.2	48.2	48.2	93	46.3	0	0	---	0.00	29.822 
22:30	48.0	48.0	48.0	93	46.1	0	0	---	0.00	29.829 
22:35	47.9	47.9	47.9	94	46.3	0	0	---	0.00	29.829 
22:40	47.7	47.7	47.7	94	46.1	0	0	---	0.00	29.829 
22:45	47.4	47.4	47.4	94	45.8	0	0	---	0.00	29.827 
22:50	47.3	47.3	47.3	94	45.7	0	0	---	0.00	29.827 
22:55	47.3	47.3	47.3	94	45.7	0	0	---	0.00	29.827 
23:00	47.4	47.4	47.4	94	45.8	0	0	---	0.00	29.838 
23:05	47.7	47.7	47.7	95	46.3	0	0	---	0.00	29.838 
23:10	47.9	47.9	47.9	95	46.5	0	0	---	0.00	29.838 
23:15	48.2	48.2	48.2	96	47.1	0	0	---	0.00	29.839 
23:20	48.6	48.6	48.6	96	47.5	0	2	248	0.00	29.839 
23:25	49.1	49.1	49.1	96	48.0	0	1	248	0.00	29.839 
23:30	49.5	49.5	49.5	96	48.4	0	2	248	0.00	29.861 
23:35	49.9	49.9	49.9	96	48.8	1	4	248	0.00	29.861 
23:40	50.4	50.4	50.4	96	49.3	2	4	270	0.00	29.861 
23:45	51.0	51.0	51.0	96	49.9	1	3	270	0.00	29.864 
23:50	51.3	51.3	51.3	96	50.2	1	4	270	0.00	29.864 
23:55	51.6	51.6	51.6	94	49.9	1	2	270	0.00	29.864 

CoCoRaHS
IN-AL-39
A2 Web Hosting
Creative Commons License
GoDaddy
Look for:

loaded 2017-10-19 12:18:45 • last modified 2010-11-18 10:43:29
Privacy PolicyDisclaimer
• wx.awcolley.com is powered by PmWiki v.2002016 •
• all content (unless otherwise noted) © 2017 A W Colley